createdAt,value
2019-04-07T00:01:48.851Z,4.50
2019-04-07T00:04:37.427Z,4.40
2019-04-07T00:07:25.187Z,4.40
2019-04-07T00:10:13.061Z,4.30
2019-04-07T00:13:01.221Z,4.30
2019-04-07T00:15:49.039Z,4.30
2019-04-07T00:18:37.399Z,4.30
2019-04-07T00:21:25.278Z,4.20
2019-04-07T00:24:13.629Z,4.30
2019-04-07T00:27:01.745Z,4.30
2019-04-07T00:29:49.605Z,4.30
2019-04-07T00:32:37.410Z,3.20
2019-04-07T00:35:30.475Z,4.20
2019-04-07T00:38:15.041Z,4.20
2019-04-07T00:41:03.022Z,4.10
2019-04-07T00:43:50.749Z,4.00
2019-04-07T00:46:38.585Z,4.00
2019-04-07T00:49:26.893Z,3.90
2019-04-07T00:52:17.279Z,3.90
2019-04-07T00:55:06.630Z,3.90
2019-04-07T00:57:54.753Z,3.80
2019-04-07T01:00:43.453Z,3.80
2019-04-07T01:03:31.209Z,3.70
2019-04-07T01:06:19.188Z,3.70
2019-04-07T01:09:17.629Z,3.60
2019-04-07T01:12:05.197Z,3.60
2019-04-07T01:14:53.357Z,3.60
2019-04-07T01:17:41.390Z,3.50
2019-04-07T01:20:29.575Z,3.60
2019-04-07T01:23:18.179Z,3.50
2019-04-07T01:26:06.416Z,3.50
2019-04-07T01:28:55.201Z,3.50
2019-04-07T01:31:44.230Z,3.60
2019-04-07T01:34:31.876Z,3.60
2019-04-07T01:37:19.736Z,3.60
2019-04-07T01:40:08.272Z,3.60
2019-04-07T01:43:10.674Z,3.50
2019-04-07T01:46:01.069Z,3.60
2019-04-07T01:48:51.070Z,3.50
2019-04-07T01:51:55.564Z,3.70
2019-04-07T01:54:44.813Z,3.90
2019-04-07T01:57:37.541Z,3.90
2019-04-07T02:00:37.064Z,3.90
2019-04-07T02:03:32.923Z,3.70
2019-04-07T02:06:28.595Z,3.50
2019-04-07T02:09:24.815Z,3.40
2019-04-07T02:12:21.189Z,3.40
2019-04-07T02:15:22.877Z,3.40
2019-04-07T02:18:28.890Z,3.40
2019-04-07T02:21:24.980Z,3.50
2019-04-07T02:24:23.471Z,3.40
2019-04-07T02:27:16.453Z,3.30
2019-04-07T02:30:09.993Z,3.40
2019-04-07T02:33:06.181Z,3.50
2019-04-07T02:36:14.493Z,3.40
2019-04-07T02:39:02.788Z,3.20
2019-04-07T02:41:52.221Z,3.10
2019-04-07T02:44:51.037Z,3.00
2019-04-07T02:47:53.178Z,3.00
2019-04-07T02:50:59.660Z,2.90
2019-04-07T02:54:02.427Z,2.90
2019-04-07T02:56:55.933Z,2.80
2019-04-07T02:59:46.444Z,2.80
2019-04-07T03:02:51.916Z,2.70
2019-04-07T03:05:42.265Z,2.70
2019-04-07T03:08:47.887Z,2.70
2019-04-07T03:11:52.415Z,2.60
2019-04-07T03:14:52.925Z,2.60
2019-04-07T03:17:57.996Z,2.60
2019-04-07T03:21:03.876Z,2.80
2019-04-07T03:24:02.595Z,2.70
2019-04-07T03:26:55.688Z,2.70
2019-04-07T03:29:51.196Z,2.60
2019-04-07T03:32:53.244Z,2.60
2019-04-07T03:35:46.200Z,2.80
2019-04-07T03:38:48.315Z,3.00
2019-04-07T03:41:38.507Z,3.00
2019-04-07T03:44:37.737Z,2.90
2019-04-07T03:47:44.198Z,2.80
2019-04-07T03:50:34.686Z,2.80
2019-04-07T03:53:31.059Z,2.70
2019-04-07T03:56:27.231Z,2.60
2019-04-07T03:59:20.109Z,2.70
2019-04-07T04:02:22.482Z,2.60
2019-04-07T04:05:14.882Z,2.60
2019-04-07T04:08:07.435Z,2.60
2019-04-07T04:11:00.127Z,2.50
2019-04-07T04:13:51.036Z,2.40
2019-04-07T04:16:40.803Z,2.40
2019-04-07T04:19:28.848Z,2.40
2019-04-07T04:22:17.087Z,2.50
2019-04-07T04:25:06.437Z,2.50
2019-04-07T04:27:55.023Z,2.40
2019-04-07T04:30:42.778Z,2.40
2019-04-07T04:33:31.048Z,2.30
2019-04-07T04:36:19.114Z,2.30
2019-04-07T04:39:08.282Z,2.30
2019-04-07T04:41:56.064Z,2.40
2019-04-07T04:44:44.350Z,2.50
2019-04-07T04:47:32.872Z,2.70
2019-04-07T04:50:21.176Z,2.90
2019-04-07T04:53:09.728Z,3.10
2019-04-07T04:55:58.983Z,3.20
2019-04-07T04:58:47.798Z,3.40
2019-04-07T05:01:36.219Z,3.50
2019-04-07T05:04:24.267Z,3.60
2019-04-07T05:07:12.455Z,3.70
2019-04-07T05:10:01.096Z,3.80
2019-04-07T05:12:49.146Z,3.90
2019-04-07T05:15:37.777Z,4.00
2019-04-07T05:18:25.614Z,4.20
2019-04-07T05:21:13.643Z,4.20
2019-04-07T05:24:01.731Z,4.20
2019-04-07T05:26:49.811Z,4.20
2019-04-07T05:29:37.685Z,4.20
2019-04-07T05:32:25.473Z,4.30
2019-04-07T05:35:13.403Z,4.40
2019-04-07T05:38:04.960Z,4.40
2019-04-07T05:40:51.089Z,4.40
2019-04-07T05:43:39.041Z,4.50
2019-04-07T05:46:28.162Z,4.50
2019-04-07T05:49:17.823Z,4.60
2019-04-07T05:52:06.768Z,4.60
2019-04-07T05:54:56.170Z,4.60
2019-04-07T05:57:44.224Z,4.70
2019-04-07T06:00:31.958Z,4.90
2019-04-07T06:03:20.485Z,5.00
2019-04-07T06:06:08.280Z,5.20
2019-04-07T06:08:56.110Z,5.20
2019-04-07T06:11:44.315Z,5.30
2019-04-07T06:14:32.364Z,5.60
2019-04-07T06:17:21.043Z,5.60
2019-04-07T06:20:12.587Z,5.80
2019-04-07T06:22:59.716Z,6.10
2019-04-07T06:25:48.381Z,6.20
2019-04-07T06:28:37.024Z,6.40
2019-04-07T06:31:26.303Z,6.50
2019-04-07T06:34:14.152Z,7.00
2019-04-07T06:37:02.432Z,7.00
2019-04-07T06:39:51.648Z,7.30
2019-04-07T06:42:40.434Z,7.50
2019-04-07T06:45:38.940Z,7.70
2019-04-07T06:48:27.674Z,7.90
2019-04-07T06:51:24.026Z,8.10
2019-04-07T06:54:32.996Z,8.30
2019-04-07T06:57:39.516Z,8.60
2019-04-07T07:00:35.287Z,8.80
2019-04-07T07:03:25.344Z,9.20
2019-04-07T07:06:18.476Z,9.50
2019-04-07T07:09:14.103Z,9.60
2019-04-07T07:12:18.349Z,9.70
2019-04-07T07:15:04.873Z,9.70
2019-04-07T07:18:06.569Z,9.70
2019-04-07T07:21:03.733Z,9.60
2019-04-07T07:23:51.491Z,9.40
2019-04-07T07:26:39.573Z,9.20
2019-04-07T07:29:28.969Z,9.20
2019-04-07T07:32:17.010Z,9.20
2019-04-07T07:35:07.904Z,9.30
2019-04-07T07:37:58.127Z,9.30
2019-04-07T07:40:47.744Z,9.40
2019-04-07T07:43:35.921Z,9.50
2019-04-07T07:46:23.891Z,9.50
2019-04-07T07:49:11.625Z,9.80
2019-04-07T07:52:00.274Z,9.90
2019-04-07T07:54:48.722Z,9.90
2019-04-07T07:57:37.072Z,9.90
2019-04-07T08:00:25.684Z,10.10
2019-04-07T08:03:13.931Z,10.50
2019-04-07T08:06:06.400Z,10.60
2019-04-07T08:09:07.625Z,10.80
2019-04-07T08:11:44.575Z,11.00
2019-04-07T08:14:32.624Z,11.20
2019-04-07T08:17:20.257Z,11.70
2019-04-07T08:20:11.392Z,11.70
2019-04-07T08:22:58.333Z,12.00
2019-04-07T08:25:46.216Z,12.20
2019-04-07T08:28:35.871Z,12.40
2019-04-07T08:31:24.076Z,12.60
2019-04-07T08:34:12.196Z,12.70
2019-04-07T08:37:00.777Z,12.80
2019-04-07T08:39:48.648Z,13.10
2019-04-07T08:42:36.956Z,13.40
2019-04-07T08:45:26.706Z,13.50
2019-04-07T08:48:14.344Z,13.70
2019-04-07T08:51:02.189Z,14.00
2019-04-07T08:53:51.834Z,14.40
2019-04-07T08:56:40.455Z,14.30
2019-04-07T08:59:28.204Z,15.10
2019-04-07T09:02:15.764Z,15.10
2019-04-07T09:05:05.368Z,15.60
2019-04-07T09:07:53.953Z,16.10
2019-04-07T09:10:44.143Z,16.50
2019-04-07T09:13:34.129Z,16.90
2019-04-07T09:16:36.891Z,16.90
2019-04-07T09:19:26.818Z,17.20
2019-04-07T09:22:31.873Z,17.50
2019-04-07T09:25:40.030Z,17.50
2019-04-07T09:28:37.811Z,17.40
2019-04-07T09:34:39.232Z,17.20
2019-04-07T09:37:38.795Z,17.00
2019-04-07T09:40:28.432Z,16.60
2019-04-07T09:43:20.726Z,16.50
2019-04-07T09:46:20.248Z,16.30
2019-04-07T09:49:16.874Z,15.80
2019-04-07T09:52:11.784Z,15.80
2019-04-07T09:55:08.566Z,15.40
2019-04-07T09:58:15.067Z,15.10
2019-04-07T10:01:06.166Z,14.70
2019-04-07T10:03:58.536Z,14.70
2019-04-07T10:06:53.679Z,14.70
2019-04-07T10:09:50.125Z,14.90
2019-04-07T10:12:40.412Z,15.10
2019-04-07T10:15:32.925Z,15.20
2019-04-07T10:18:39.039Z,15.40
2019-04-07T10:21:31.409Z,15.70
2019-04-07T10:24:23.743Z,16.00
2019-04-07T10:27:29.668Z,16.70
2019-04-07T10:30:22.554Z,16.70
2019-04-07T10:33:15.689Z,16.90
2019-04-07T10:36:21.685Z,17.10
2019-04-07T10:39:11.993Z,17.50
2019-04-07T10:42:05.413Z,17.50
2019-04-07T10:45:09.756Z,17.60
2019-04-07T10:48:05.797Z,17.70
2019-04-07T10:51:12.182Z,17.90
2019-04-07T10:54:08.132Z,18.00
2019-04-07T10:57:07.579Z,17.80
2019-04-07T11:00:03.450Z,18.00
2019-04-07T11:02:55.506Z,18.00
2019-04-07T11:08:40.030Z,17.80
2019-04-07T11:11:49.171Z,18.30
2019-04-07T11:14:33.104Z,18.60
2019-04-07T11:17:29.224Z,18.70
2019-04-07T11:20:36.131Z,18.60
2019-04-07T11:23:34.950Z,18.50
2019-04-07T11:26:33.347Z,18.30
2019-04-07T11:29:41.616Z,18.30
2019-04-07T11:32:32.227Z,17.90
2019-04-07T11:35:22.209Z,17.90
2019-04-07T11:38:14.895Z,17.80
2019-04-07T11:41:07.691Z,17.60
2019-04-07T11:44:03.093Z,17.40
2019-04-07T11:46:53.009Z,17.30
2019-04-07T11:49:49.408Z,17.20
2019-04-07T11:52:39.832Z,17.10
2019-04-07T11:55:38.847Z,17.30
2019-04-07T11:58:38.519Z,17.40
2019-04-07T12:01:30.929Z,17.40
2019-04-07T12:04:29.639Z,17.40
2019-04-07T12:07:22.878Z,17.60
2019-04-07T12:10:21.401Z,17.70
2019-04-07T12:13:14.387Z,18.20
2019-04-07T12:16:20.047Z,18.20
2019-04-07T12:19:16.144Z,19.50
2019-04-07T12:22:22.803Z,19.50
2019-04-07T12:25:22.159Z,19.90
2019-04-07T12:28:28.512Z,19.90
2019-04-07T12:31:23.886Z,20.50
2019-04-07T12:34:15.476Z,20.50
2019-04-07T12:37:09.069Z,20.40
2019-04-07T12:40:15.324Z,20.00
2019-04-07T12:43:12.089Z,20.00
2019-04-07T12:46:05.590Z,20.10
2019-04-07T12:48:55.456Z,20.20
2019-04-07T12:52:00.978Z,20.50
2019-04-07T12:54:50.557Z,20.20
2019-04-07T12:57:40.254Z,20.50
2019-04-07T13:00:55.757Z,20.80
2019-04-07T13:03:48.640Z,21.30
2019-04-07T13:06:44.931Z,21.70
2019-04-07T13:09:41.883Z,21.20
2019-04-07T13:12:43.678Z,20.60
2019-04-07T13:15:33.579Z,20.50
2019-04-07T13:18:41.401Z,19.90
2019-04-07T13:21:40.362Z,18.70
2019-04-07T13:24:48.552Z,18.60
2019-04-07T13:27:44.754Z,18.10
2019-04-07T13:30:44.393Z,17.90
2019-04-07T13:33:42.753Z,17.70
2019-04-07T13:36:35.182Z,17.80
2019-04-07T13:39:24.952Z,17.80
2019-04-07T13:42:15.290Z,18.00
2019-04-07T13:45:20.022Z,18.20
2019-04-07T13:48:22.578Z,18.30
2019-04-07T13:51:29.062Z,18.40
2019-04-07T13:54:32.525Z,18.40
2019-04-07T13:57:38.241Z,18.40
2019-04-07T14:00:46.346Z,18.40
2019-04-07T14:03:50.476Z,18.40
2019-04-07T14:06:46.791Z,18.50
2019-04-07T14:09:36.382Z,18.60
2019-04-07T14:12:43.032Z,18.80
2019-04-07T14:15:48.511Z,18.70
2019-04-07T14:18:54.901Z,18.70
2019-04-07T14:21:45.111Z,18.80
2019-04-07T14:24:41.459Z,18.80
2019-04-07T14:27:31.185Z,18.80
2019-04-07T14:30:38.218Z,19.10
2019-04-07T14:33:44.569Z,19.10
2019-04-07T14:36:50.402Z,19.10
2019-04-07T14:39:45.601Z,18.80
2019-04-07T14:42:52.421Z,18.70
2019-04-07T14:45:47.578Z,18.60
2019-04-07T14:48:39.072Z,18.50
2019-04-07T14:51:32.851Z,18.50
2019-04-07T14:54:22.606Z,18.20
2019-04-07T14:57:19.024Z,18.20
2019-04-07T15:00:12.235Z,17.90
2019-04-07T15:03:00.935Z,17.80
2019-04-07T15:05:50.639Z,17.80
2019-04-07T15:08:47.400Z,17.80
2019-04-07T15:11:37.854Z,18.20
2019-04-07T15:14:26.275Z,17.90
2019-04-07T15:17:14.552Z,17.90
2019-04-07T15:20:02.799Z,17.90
2019-04-07T15:22:50.713Z,17.80
2019-04-07T15:25:41.376Z,17.60
2019-04-07T15:28:30.639Z,17.60
2019-04-07T15:31:19.220Z,17.40
2019-04-07T15:34:10.734Z,17.30
2019-04-07T15:36:57.955Z,17.30
2019-04-07T15:39:45.951Z,17.20
2019-04-07T15:42:40.298Z,17.20
2019-04-07T15:45:23.498Z,17.10
2019-04-07T15:48:12.386Z,17.10
2019-04-07T15:51:03.138Z,17.10
2019-04-07T15:53:51.716Z,17.00
2019-04-07T15:56:39.559Z,17.00
2019-04-07T15:59:29.390Z,17.00
2019-04-07T16:02:17.295Z,17.00
2019-04-07T16:05:08.197Z,16.90
2019-04-07T16:07:56.239Z,16.80
2019-04-07T16:10:45.195Z,16.80
2019-04-07T16:13:33.767Z,16.70
2019-04-07T16:16:22.784Z,16.70
2019-04-07T16:19:17.566Z,16.60
2019-04-07T16:22:01.757Z,16.60
2019-04-07T16:24:51.607Z,16.60
2019-04-07T16:27:39.776Z,16.50
2019-04-07T16:30:27.537Z,16.50
2019-04-07T16:33:16.273Z,16.40
2019-04-07T16:36:04.450Z,16.40
2019-04-07T16:38:53.226Z,16.30
2019-04-07T16:41:44.234Z,16.30
2019-04-07T16:44:30.821Z,16.20
2019-04-07T16:47:23.256Z,16.20
2019-04-07T16:50:08.674Z,16.20
2019-04-07T16:52:57.415Z,16.10
2019-04-07T16:55:51.802Z,16.00
2019-04-07T16:58:39.147Z,15.90
2019-04-07T17:01:27.547Z,15.90
2019-04-07T17:04:15.895Z,15.90
2019-04-07T17:07:07.648Z,15.80
2019-04-07T17:09:56.440Z,15.80
2019-04-07T17:12:43.918Z,15.70
2019-04-07T17:15:32.782Z,15.60
2019-04-07T17:18:37.091Z,15.50
2019-04-07T17:21:25.510Z,15.50
2019-04-07T17:24:14.141Z,15.30
2019-04-07T17:27:03.132Z,15.30
2019-04-07T17:29:54.081Z,15.10
2019-04-07T17:32:41.665Z,15.10
2019-04-07T17:35:30.729Z,15.10
2019-04-07T17:38:20.337Z,15.10
2019-04-07T17:41:09.189Z,15.10
2019-04-07T17:44:08.217Z,15.00
2019-04-07T17:47:15.665Z,14.90
2019-04-07T17:50:10.713Z,14.90
2019-04-07T17:53:14.155Z,15.00
2019-04-07T17:56:03.754Z,14.90
2019-04-07T17:58:59.805Z,14.80
2019-04-07T18:01:56.756Z,14.70
2019-04-07T18:04:51.957Z,14.70
2019-04-07T18:07:58.502Z,14.50
2019-04-07T18:10:57.874Z,14.40
2019-04-07T18:13:56.642Z,14.40
2019-04-07T18:17:02.415Z,14.30
2019-04-07T18:19:55.850Z,14.20
2019-04-07T18:23:04.404Z,14.20
2019-04-07T18:25:54.455Z,14.10
2019-04-07T18:28:55.258Z,14.10
2019-04-07T18:31:46.905Z,13.90
2019-04-07T18:34:37.750Z,13.90
2019-04-07T18:37:27.473Z,13.80
2019-04-07T18:40:27.353Z,13.70
2019-04-07T18:43:33.721Z,13.70
2019-04-07T18:46:23.700Z,13.60
2019-04-07T18:49:16.932Z,13.50
2019-04-07T18:52:22.768Z,13.50
2019-04-07T18:55:18.505Z,13.40
2019-04-07T18:58:23.141Z,13.30
2019-04-07T19:01:28.518Z,13.20
2019-04-07T19:04:24.212Z,13.10
2019-04-07T19:07:16.944Z,13.10
2019-04-07T19:10:19.239Z,13.10
2019-04-07T19:13:26.720Z,12.90
2019-04-07T19:16:18.841Z,12.90
2019-04-07T19:22:05.377Z,12.70
2019-04-07T19:25:09.205Z,12.70
2019-04-07T19:28:03.736Z,12.70
2019-04-07T19:30:59.254Z,12.60
2019-04-07T19:33:49.412Z,12.60
2019-04-07T19:36:45.033Z,12.50
2019-04-07T19:39:38.637Z,12.40
2019-04-07T19:42:28.518Z,12.40
2019-04-07T19:45:24.746Z,12.40
2019-04-07T19:48:15.581Z,12.40
2019-04-07T19:51:06.740Z,12.40
2019-04-07T19:54:08.814Z,12.40
2019-04-07T19:56:58.680Z,12.40
2019-04-07T20:00:00.546Z,12.40
2019-04-07T20:02:56.057Z,12.40
2019-04-07T20:05:48.784Z,12.30
2019-04-07T20:08:37.509Z,12.40
2019-04-07T20:11:30.428Z,12.40
2019-04-07T20:14:44.967Z,12.40
2019-04-07T20:17:30.914Z,12.40
2019-04-07T20:20:30.223Z,12.40
2019-04-07T20:23:35.708Z,13.00
2019-04-07T20:26:42.636Z,12.30
2019-04-07T20:29:34.035Z,12.20
2019-04-07T20:32:36.216Z,12.20
2019-04-07T20:35:27.576Z,12.20
2019-04-07T20:38:34.047Z,12.20
2019-04-07T20:41:23.968Z,12.20
2019-04-07T20:44:19.305Z,12.20
2019-04-07T20:47:09.089Z,12.20
2019-04-07T20:50:01.593Z,12.20
2019-04-07T20:52:53.579Z,12.10
2019-04-07T20:55:53.998Z,12.10
2019-04-07T20:58:53.806Z,12.10
2019-04-07T21:02:02.497Z,12.10
2019-04-07T21:04:43.709Z,12.10
2019-04-07T21:07:49.907Z,12.10
2019-04-07T21:10:48.298Z,12.10
2019-04-07T21:13:37.611Z,12.10
2019-04-07T21:16:33.473Z,12.10
2019-04-07T21:19:22.900Z,12.10
2019-04-07T21:22:48.068Z,12.00
2019-04-07T21:25:37.629Z,12.00
2019-04-07T21:28:27.253Z,12.00
2019-04-07T21:31:22.814Z,11.90
2019-04-07T21:34:20.938Z,11.90
2019-04-07T21:37:16.443Z,11.90
2019-04-07T21:40:14.332Z,11.80
2019-04-07T21:43:24.285Z,11.80
2019-04-07T21:46:22.677Z,11.80
2019-04-07T21:49:11.947Z,11.80
2019-04-07T21:52:02.542Z,11.80
2019-04-07T21:55:10.106Z,11.80
2019-04-07T21:58:01.052Z,11.80
2019-04-07T22:01:09.429Z,11.70
2019-04-07T22:04:02.865Z,11.80
2019-04-07T22:06:59.595Z,11.70
2019-04-07T22:09:55.208Z,11.70
2019-04-07T22:12:43.134Z,11.80
2019-04-07T22:15:41.435Z,11.70
2019-04-07T22:18:20.168Z,11.60
2019-04-07T22:21:08.646Z,11.60
2019-04-07T22:23:56.389Z,11.60
2019-04-07T22:26:49.167Z,11.60
2019-04-07T22:29:34.988Z,11.60
2019-04-07T22:32:24.130Z,11.60
2019-04-07T22:35:13.057Z,11.60
2019-04-07T22:38:01.040Z,11.60
2019-04-07T22:40:49.924Z,11.60
2019-04-07T22:43:37.670Z,11.60
2019-04-07T22:46:27.192Z,11.60
2019-04-07T22:49:15.606Z,11.50
2019-04-07T22:52:03.575Z,11.50
2019-04-07T22:54:51.920Z,11.40
2019-04-07T22:57:40.996Z,11.40
2019-04-07T23:00:29.255Z,11.40
2019-04-07T23:03:17.617Z,11.40
2019-04-07T23:06:05.357Z,11.40
2019-04-07T23:08:53.189Z,11.40
2019-04-07T23:11:41.079Z,11.30
2019-04-07T23:14:28.941Z,11.30
2019-04-07T23:17:17.599Z,11.30
2019-04-07T23:20:07.106Z,11.30
2019-04-07T23:22:55.118Z,11.30
2019-04-07T23:25:43.979Z,11.30
2019-04-07T23:28:32.673Z,11.30
2019-04-07T23:31:21.484Z,11.30
2019-04-07T23:34:10.495Z,11.30
2019-04-07T23:36:58.562Z,11.20
2019-04-07T23:39:46.618Z,11.00
2019-04-07T23:42:34.237Z,11.10
2019-04-07T23:45:22.109Z,11.00
2019-04-07T23:48:10.432Z,11.00
2019-04-07T23:50:58.314Z,11.00
2019-04-07T23:54:09.119Z,10.90
2019-04-07T23:56:58.154Z,10.90
2019-04-07T23:59:47.036Z,10.80
